createdAt,value
2022-08-25T00:01:39.586Z,-58
2022-08-25T00:04:12.781Z,-58
2022-08-25T00:06:42.084Z,-58
2022-08-25T00:09:10.237Z,-58
2022-08-25T00:11:38.644Z,-59
2022-08-25T00:14:09.222Z,-58
2022-08-25T00:16:35.674Z,-58
2022-08-25T00:19:07.400Z,-58
2022-08-25T00:21:34.139Z,-57
2022-08-25T00:24:05.191Z,-57
2022-08-25T00:26:32.054Z,-58
2022-08-25T00:29:01.929Z,-58
2022-08-25T00:31:37.649Z,-58
2022-08-25T00:34:08.286Z,-59
2022-08-25T00:36:35.140Z,-58
2022-08-25T00:39:01.649Z,-58
2022-08-25T00:41:28.109Z,-58
2022-08-25T00:44:01.882Z,-61
2022-08-25T00:46:31.239Z,-58
2022-08-25T00:49:02.685Z,-58
2022-08-25T00:51:36.221Z,-58
2022-08-25T00:54:03.772Z,-58
2022-08-25T00:56:31.689Z,-58
2022-08-25T00:58:59.713Z,-57
2022-08-25T01:01:27.075Z,-58
2022-08-25T01:03:54.069Z,-57
2022-08-25T01:06:21.280Z,-58
2022-08-25T01:08:47.694Z,-58
2022-08-25T01:11:14.138Z,-57
2022-08-25T01:13:45.721Z,-57
2022-08-25T01:16:15.226Z,-57
2022-08-25T01:18:52.082Z,-57
2022-08-25T01:21:20.749Z,-58
2022-08-25T01:23:49.186Z,-58
2022-08-25T01:26:30.202Z,-57
2022-08-25T01:29:17.459Z,-58
2022-08-25T01:31:44.025Z,-58
2022-08-25T01:34:14.608Z,-58
2022-08-25T01:36:43.913Z,-58
2022-08-25T01:39:12.273Z,-58
2022-08-25T01:42:04.582Z,-58
2022-08-25T01:44:33.175Z,-58
2022-08-25T01:46:59.530Z,-58
2022-08-25T01:49:25.965Z,-58
2022-08-25T01:51:57.613Z,-58
2022-08-25T01:54:24.309Z,-57
2022-08-25T01:56:50.693Z,-57
2022-08-25T01:59:23.879Z,-57
2022-08-25T02:01:51.693Z,-57
2022-08-25T02:04:26.882Z,-58
2022-08-25T02:06:53.296Z,-59
2022-08-25T02:09:19.705Z,-58
2022-08-25T02:11:47.859Z,-58
2022-08-25T02:14:15.647Z,-58
2022-08-25T02:16:46.202Z,-58
2022-08-25T02:19:12.588Z,-58
2022-08-25T02:21:39.380Z,-57
2022-08-25T02:24:06.934Z,-58
2022-08-25T02:26:33.616Z,-57
2022-08-25T02:29:00.834Z,-57
2022-08-25T02:31:28.410Z,-58
2022-08-25T02:33:55.474Z,-58
2022-08-25T02:36:23.102Z,-58
2022-08-25T02:38:50.473Z,-58
2022-08-25T02:41:20.210Z,-57
2022-08-25T02:43:48.530Z,-58
2022-08-25T02:46:16.495Z,-57
2022-08-25T02:48:42.976Z,-58
2022-08-25T02:51:10.461Z,-57
2022-08-25T02:53:40.863Z,-58
2022-08-25T02:56:10.024Z,-59
2022-08-25T02:58:37.764Z,-60
2022-08-25T03:01:04.934Z,-59
2022-08-25T03:03:31.457Z,-60
2022-08-25T03:05:57.869Z,-60
2022-08-25T03:08:24.793Z,-60
2022-08-25T03:10:52.043Z,-60
2022-08-25T03:13:18.508Z,-59
2022-08-25T03:15:45.780Z,-60
2022-08-25T03:18:12.235Z,-59
2022-08-25T03:20:40.882Z,-59
2022-08-25T03:23:07.767Z,-60
2022-08-25T03:25:52.766Z,-59
2022-08-25T03:28:21.036Z,-59
2022-08-25T03:30:56.210Z,-59
2022-08-25T03:33:22.888Z,-60
2022-08-25T03:35:49.595Z,-60
2022-08-25T03:38:16.856Z,-59
2022-08-25T03:40:43.341Z,-59
2022-08-25T03:43:09.760Z,-59
2022-08-25T03:45:41.368Z,-59
2022-08-25T03:48:07.811Z,-59
2022-08-25T03:50:34.235Z,-59
2022-08-25T03:53:00.736Z,-59
2022-08-25T03:55:27.915Z,-60
2022-08-25T03:57:56.173Z,-59
2022-08-25T04:00:23.665Z,-59
2022-08-25T04:02:50.164Z,-59
2022-08-25T04:05:16.677Z,-59
2022-08-25T04:07:43.050Z,-59
2022-08-25T04:10:10.663Z,-59
2022-08-25T04:12:37.742Z,-59
2022-08-25T04:15:06.035Z,-60
2022-08-25T04:17:32.560Z,-59
2022-08-25T04:19:59.546Z,-60
2022-08-25T04:22:25.968Z,-60
2022-08-25T04:24:55.290Z,-59
2022-08-25T04:27:21.717Z,-60
2022-08-25T04:29:48.085Z,-60
2022-08-25T04:32:14.541Z,-60
2022-08-25T04:34:41.540Z,-59
2022-08-25T04:37:08.450Z,-59
2022-08-25T04:39:35.110Z,-60
2022-08-25T04:42:02.038Z,-60
2022-08-25T04:44:30.101Z,-60
2022-08-25T04:46:56.977Z,-59
2022-08-25T04:49:23.336Z,-61
2022-08-25T04:51:49.854Z,-59
2022-08-25T04:54:17.328Z,-60
2022-08-25T04:56:43.901Z,-59
2022-08-25T04:59:12.943Z,-59
2022-08-25T05:01:40.445Z,-59
2022-08-25T05:04:08.943Z,-60
2022-08-25T05:06:41.284Z,-59
2022-08-25T05:09:07.765Z,-59
2022-08-25T05:11:34.314Z,-59
2022-08-25T05:14:02.468Z,-59
2022-08-25T05:16:29.999Z,-59
2022-08-25T05:18:56.802Z,-59
2022-08-25T05:21:26.690Z,-60
2022-08-25T05:23:58.696Z,-60
2022-08-25T05:26:26.801Z,-60
2022-08-25T05:28:54.897Z,-60
2022-08-25T05:31:23.475Z,-60
2022-08-25T05:33:50.956Z,-59
2022-08-25T05:36:19.741Z,-59
2022-08-25T05:38:46.556Z,-59
2022-08-25T05:41:19.016Z,-59
2022-08-25T05:43:48.600Z,-60
2022-08-25T05:46:16.999Z,-60
2022-08-25T05:48:43.502Z,-59
2022-08-25T05:51:11.184Z,-59
2022-08-25T05:53:39.482Z,-59
2022-08-25T05:56:06.185Z,-59
2022-08-25T05:58:32.700Z,-59
2022-08-25T06:01:20.201Z,-59
2022-08-25T06:03:47.567Z,-59
2022-08-25T06:06:15.962Z,-59
2022-08-25T06:08:44.342Z,-58
2022-08-25T06:11:12.561Z,-59
2022-08-25T06:13:39.541Z,-59
2022-08-25T06:16:06.838Z,-59
2022-08-25T06:18:33.307Z,-59
2022-08-25T06:20:59.677Z,-59
2022-08-25T06:23:26.151Z,-59
2022-08-25T06:25:54.050Z,-59
2022-08-25T06:28:20.992Z,-59
2022-08-25T06:30:47.996Z,-59
2022-08-25T06:33:14.646Z,-59
2022-08-25T06:35:43.415Z,-59
2022-08-25T06:38:10.814Z,-59
2022-08-25T06:40:37.941Z,-59
2022-08-25T06:43:08.699Z,-59
2022-08-25T06:45:35.793Z,-59
2022-08-25T06:48:02.290Z,-59
2022-08-25T06:50:28.784Z,-59
2022-08-25T06:52:55.224Z,-59
2022-08-25T06:55:21.745Z,-59
2022-08-25T06:57:48.495Z,-59
2022-08-25T07:00:15.200Z,-59
2022-08-25T07:02:42.568Z,-59
2022-08-25T07:05:13.259Z,-59
2022-08-25T07:07:43.082Z,-59
2022-08-25T07:10:10.593Z,-59
2022-08-25T07:12:37.000Z,-59
2022-08-25T07:15:19.545Z,-59
2022-08-25T07:17:47.604Z,-59
2022-08-25T07:20:16.275Z,-59
2022-08-25T07:22:42.733Z,-60
2022-08-25T07:25:11.138Z,-59
2022-08-25T07:27:38.555Z,-59
2022-08-25T07:30:09.594Z,-59
2022-08-25T07:32:37.696Z,-59
2022-08-25T07:35:15.398Z,-59
2022-08-25T07:37:52.862Z,-59
2022-08-25T07:40:23.318Z,-59
2022-08-25T07:42:51.574Z,-59
2022-08-25T07:45:20.702Z,-59
2022-08-25T07:47:47.989Z,-60
2022-08-25T07:50:14.720Z,-59
2022-08-25T07:52:41.656Z,-60
2022-08-25T07:55:11.199Z,-60
2022-08-25T07:57:39.977Z,-60
2022-08-25T08:00:07.958Z,-59
2022-08-25T08:02:39.017Z,-59
2022-08-25T08:05:08.433Z,-59
2022-08-25T08:07:43.262Z,-60
2022-08-25T08:10:42.416Z,-59
2022-08-25T08:12:59.537Z,-59
2022-08-25T08:15:26.112Z,-59
2022-08-25T08:17:56.698Z,-60
2022-08-25T08:20:24.632Z,-59
2022-08-25T08:22:51.098Z,-60
2022-08-25T08:25:21.306Z,-60
2022-08-25T08:27:54.884Z,-59
2022-08-25T08:30:23.751Z,-59
2022-08-25T08:33:09.110Z,-60
2022-08-25T08:35:35.825Z,-58
2022-08-25T08:38:02.902Z,-58
2022-08-25T08:40:32.905Z,-58
2022-08-25T08:43:07.035Z,-57
2022-08-25T08:45:51.883Z,-58
2022-08-25T08:48:55.462Z,-57
2022-08-25T08:51:25.875Z,-58
2022-08-25T08:54:02.491Z,-60
2022-08-25T08:56:31.972Z,-57
2022-08-25T08:59:13.021Z,-58
2022-08-25T09:02:13.853Z,-58
2022-08-25T09:05:02.976Z,-58
2022-08-25T09:07:39.442Z,-59
2022-08-25T09:10:10.349Z,-57
2022-08-25T09:12:48.223Z,-58
2022-08-25T09:15:53.227Z,-58
2022-08-25T09:18:41.282Z,-59
2022-08-25T09:21:26.219Z,-60
2022-08-25T09:24:11.790Z,-60
2022-08-25T09:26:56.185Z,-60
2022-08-25T09:29:26.917Z,-60
2022-08-25T09:31:58.062Z,-60
2022-08-25T09:34:30.212Z,-60
2022-08-25T09:36:56.719Z,-60
2022-08-25T09:39:23.701Z,-60
2022-08-25T09:41:51.981Z,-60
2022-08-25T09:44:43.645Z,-60
2022-08-25T09:47:23.576Z,-60
2022-08-25T09:49:56.682Z,-60
2022-08-25T09:52:28.960Z,-60
2022-08-25T09:54:57.733Z,-60
2022-08-25T09:57:44.514Z,-60
2022-08-25T10:00:22.151Z,-60
2022-08-25T10:03:13.935Z,-60
2022-08-25T10:06:01.208Z,-59
2022-08-25T10:08:39.391Z,-59
2022-08-25T10:11:12.890Z,-58
2022-08-25T10:14:02.550Z,-59
2022-08-25T10:16:36.536Z,-58
2022-08-25T10:19:25.821Z,-61
2022-08-25T10:22:07.425Z,-61
2022-08-25T10:24:35.136Z,-60
2022-08-25T10:27:14.753Z,-60
2022-08-25T10:30:12.491Z,-61
2022-08-25T10:32:58.047Z,-61
2022-08-25T10:35:31.217Z,-61
2022-08-25T10:38:36.062Z,-59
2022-08-25T10:41:16.703Z,-58
2022-08-25T10:43:53.588Z,-59
2022-08-25T10:46:52.755Z,-59
2022-08-25T10:49:33.903Z,-62
2022-08-25T10:52:07.436Z,-59
2022-08-25T10:54:44.611Z,-60
2022-08-25T10:57:32.709Z,-59
2022-08-25T11:00:12.245Z,-60
2022-08-25T11:02:52.489Z,-61
2022-08-25T11:05:40.045Z,-60
2022-08-25T11:08:39.911Z,-60
2022-08-25T11:11:24.153Z,-61
2022-08-25T11:14:03.640Z,-60
2022-08-25T11:16:40.336Z,-59
2022-08-25T11:19:16.023Z,-60
2022-08-25T11:21:51.994Z,-60
2022-08-25T11:24:18.541Z,-59
2022-08-25T11:26:53.281Z,-59
2022-08-25T11:29:21.946Z,-59
2022-08-25T11:31:53.650Z,-60
2022-08-25T11:34:21.765Z,-60
2022-08-25T11:37:20.249Z,-60
2022-08-25T11:40:17.250Z,-60
2022-08-25T11:43:14.659Z,-60
2022-08-25T11:45:59.035Z,-60
2022-08-25T11:48:37.369Z,-60
2022-08-25T11:51:08.041Z,-59
2022-08-25T11:53:43.804Z,-59
2022-08-25T11:56:31.613Z,-59
2022-08-25T11:58:59.467Z,-59
2022-08-25T12:01:42.975Z,-60
2022-08-25T12:04:33.607Z,-59
2022-08-25T12:07:06.805Z,-60
2022-08-25T12:09:54.498Z,-60
2022-08-25T12:12:31.168Z,-60
2022-08-25T12:15:32.088Z,-59
2022-08-25T12:18:09.297Z,-59
2022-08-25T12:21:02.482Z,-60
2022-08-25T12:23:44.794Z,-60
2022-08-25T12:26:32.017Z,-60
2022-08-25T12:29:25.645Z,-60
2022-08-25T12:32:07.239Z,-60
2022-08-25T12:34:52.753Z,-59
2022-08-25T12:37:24.188Z,-60
2022-08-25T12:39:50.607Z,-60
2022-08-25T12:42:39.682Z,-59
2022-08-25T12:45:21.207Z,-60
2022-08-25T12:47:49.506Z,-60
2022-08-25T12:50:47.602Z,-59
2022-08-25T12:53:22.385Z,-60
2022-08-25T12:55:54.135Z,-59
2022-08-25T12:58:23.045Z,-60
2022-08-25T13:01:36.002Z,-59
2022-08-25T13:04:58.632Z,-59
2022-08-25T13:07:25.053Z,-59
2022-08-25T13:10:13.318Z,-60
2022-08-25T13:13:06.017Z,-60
2022-08-25T13:15:32.308Z,-60
2022-08-25T13:18:19.958Z,-60
2022-08-25T13:20:49.874Z,-60
2022-08-25T13:23:21.058Z,-60
2022-08-25T13:25:52.939Z,-60
2022-08-25T13:28:37.985Z,-60
2022-08-25T13:31:16.279Z,-60
2022-08-25T13:33:56.476Z,-60
2022-08-25T13:36:51.994Z,-60
2022-08-25T13:39:45.503Z,-60
2022-08-25T13:42:15.665Z,-60
2022-08-25T13:44:52.406Z,-60
2022-08-25T13:47:43.676Z,-60
2022-08-25T13:50:27.246Z,-59
2022-08-25T13:53:02.430Z,-59
2022-08-25T13:55:50.975Z,-59
2022-08-25T13:58:45.082Z,-59
2022-08-25T14:01:22.264Z,-60
2022-08-25T14:04:26.619Z,-59
2022-08-25T14:07:11.812Z,-60
2022-08-25T14:10:00.224Z,-59
2022-08-25T14:12:29.916Z,-59
2022-08-25T14:15:07.772Z,-59
2022-08-25T14:17:39.382Z,-59
2022-08-25T14:20:17.136Z,-59
2022-08-25T14:22:43.561Z,-59
2022-08-25T14:25:11.227Z,-59
2022-08-25T14:27:56.813Z,-59
2022-08-25T14:30:29.404Z,-59
2022-08-25T14:32:56.525Z,-59
2022-08-25T14:35:22.911Z,-59
2022-08-25T14:37:49.405Z,-62
2022-08-25T14:40:20.038Z,-62
2022-08-25T14:42:47.578Z,-59
2022-08-25T14:45:15.942Z,-59
2022-08-25T14:47:44.006Z,-60
2022-08-25T14:50:20.957Z,-59
2022-08-25T14:52:48.180Z,-59
2022-08-25T14:55:21.143Z,-60
2022-08-25T14:57:58.326Z,-60
2022-08-25T15:00:25.306Z,-59
2022-08-25T15:02:52.968Z,-61
2022-08-25T15:05:25.630Z,-60
2022-08-25T15:08:12.263Z,-60
2022-08-25T15:10:40.128Z,-59
2022-08-25T15:13:06.949Z,-60
2022-08-25T15:15:38.035Z,-60
2022-08-25T15:18:05.505Z,-62
2022-08-25T15:20:32.656Z,-63
2022-08-25T15:22:59.000Z,-61
2022-08-25T15:25:25.564Z,-61
2022-08-25T15:27:52.168Z,-60
2022-08-25T15:30:18.597Z,-60
2022-08-25T15:32:44.938Z,-59
2022-08-25T15:35:15.232Z,-61
2022-08-25T15:37:42.105Z,-60
2022-08-25T15:40:09.030Z,-60
2022-08-25T15:42:37.763Z,-62
2022-08-25T15:45:09.852Z,-62
2022-08-25T15:47:36.244Z,-60
2022-08-25T15:50:15.356Z,-60
2022-08-25T15:52:46.683Z,-61
2022-08-25T15:55:16.309Z,-60
2022-08-25T15:57:43.184Z,-62
2022-08-25T16:00:12.146Z,-61
2022-08-25T16:02:40.169Z,-61
2022-08-25T16:05:08.302Z,-61
2022-08-25T16:07:35.203Z,-60
2022-08-25T16:10:03.937Z,-61
2022-08-25T16:12:31.546Z,-60
2022-08-25T16:14:58.236Z,-60
2022-08-25T16:17:24.961Z,-61
2022-08-25T16:19:51.325Z,-61
2022-08-25T16:22:17.693Z,-60
2022-08-25T16:24:44.947Z,-62
2022-08-25T16:27:12.848Z,-61
2022-08-25T16:29:41.949Z,-61
2022-08-25T16:32:10.286Z,-61
2022-08-25T16:34:36.762Z,-61
2022-08-25T16:37:03.619Z,-60
2022-08-25T16:39:31.148Z,-62
2022-08-25T16:41:57.704Z,-60
2022-08-25T16:44:24.616Z,-61
2022-08-25T16:46:54.551Z,-61
2022-08-25T16:49:21.361Z,-60
2022-08-25T16:51:57.704Z,-61
2022-08-25T16:54:44.796Z,-60
2022-08-25T16:57:11.405Z,-58
2022-08-25T16:59:37.780Z,-59
2022-08-25T17:02:04.249Z,-59
2022-08-25T17:04:32.449Z,-60
2022-08-25T17:06:59.073Z,-61
2022-08-25T17:09:25.444Z,-61
2022-08-25T17:11:56.453Z,-59
2022-08-25T17:14:22.840Z,-59
2022-08-25T17:16:50.934Z,-59
2022-08-25T17:19:17.428Z,-59
2022-08-25T17:21:46.018Z,-60
2022-08-25T17:24:13.481Z,-59
2022-08-25T17:26:42.133Z,-59
2022-08-25T17:29:09.237Z,-58
2022-08-25T17:31:39.443Z,-58
2022-08-25T17:34:10.339Z,-58
2022-08-25T17:36:37.834Z,-58
2022-08-25T17:39:07.432Z,-58
2022-08-25T17:41:33.905Z,-61
2022-08-25T17:44:04.847Z,-58
2022-08-25T17:46:31.352Z,-58
2022-08-25T17:48:57.786Z,-61
2022-08-25T17:51:24.918Z,-61
2022-08-25T17:53:52.733Z,-61
2022-08-25T17:56:22.788Z,-61
2022-08-25T17:58:50.650Z,-61
2022-08-25T18:01:19.874Z,-60
2022-08-25T18:03:49.095Z,-62
2022-08-25T18:06:16.000Z,-62
2022-08-25T18:08:44.210Z,-62
2022-08-25T18:11:11.124Z,-62
2022-08-25T18:13:38.873Z,-62
2022-08-25T18:16:05.712Z,-63
2022-08-25T18:18:34.229Z,-63
2022-08-25T18:21:02.332Z,-64
2022-08-25T18:23:29.752Z,-62
2022-08-25T18:26:00.753Z,-64
2022-08-25T18:28:28.679Z,-63
2022-08-25T18:30:55.910Z,-59
2022-08-25T18:33:22.747Z,-59
2022-08-25T18:35:49.069Z,-60
2022-08-25T18:38:33.759Z,-60
2022-08-25T18:41:04.717Z,-61
2022-08-25T18:43:34.064Z,-60
2022-08-25T18:46:04.095Z,-60
2022-08-25T18:48:31.921Z,-61
2022-08-25T18:51:00.771Z,-59
2022-08-25T18:53:30.109Z,-59
2022-08-25T18:56:04.086Z,-60
2022-08-25T18:58:30.464Z,-59
2022-08-25T19:00:56.894Z,-60
2022-08-25T19:03:23.422Z,-59
2022-08-25T19:05:57.140Z,-60
2022-08-25T19:08:24.928Z,-61
2022-08-25T19:10:53.463Z,-61
2022-08-25T19:13:22.794Z,-59
2022-08-25T19:15:52.292Z,-60
2022-08-25T19:18:25.838Z,-60
2022-08-25T19:20:52.612Z,-60
2022-08-25T19:23:19.717Z,-61
2022-08-25T19:25:46.094Z,-59
2022-08-25T19:28:13.353Z,-60
2022-08-25T19:30:43.701Z,-60
2022-08-25T19:33:37.698Z,-59
2022-08-25T19:36:04.363Z,-60
2022-08-25T19:38:34.026Z,-59
2022-08-25T19:41:02.494Z,-59
2022-08-25T19:43:28.882Z,-60
2022-08-25T19:45:55.325Z,-59
2022-08-25T19:48:23.252Z,-59
2022-08-25T19:50:50.716Z,-59
2022-08-25T19:53:22.665Z,-59
2022-08-25T19:55:49.116Z,-62
2022-08-25T19:58:15.880Z,-62
2022-08-25T20:00:47.109Z,-62
2022-08-25T20:03:17.303Z,-62
2022-08-25T20:05:43.762Z,-61
2022-08-25T20:08:10.537Z,-62
2022-08-25T20:10:41.860Z,-60
2022-08-25T20:13:09.241Z,-60
2022-08-25T20:15:37.200Z,-60
2022-08-25T20:18:05.649Z,-63
2022-08-25T20:20:34.578Z,-62
2022-08-25T20:23:21.098Z,-62
2022-08-25T20:25:50.228Z,-61
2022-08-25T20:28:19.056Z,-60
2022-08-25T20:30:46.064Z,-60
2022-08-25T20:33:13.128Z,-60
2022-08-25T20:35:39.847Z,-67
2022-08-25T20:38:07.329Z,-60
2022-08-25T20:40:34.283Z,-60
2022-08-25T20:43:04.348Z,-60
2022-08-25T20:45:31.003Z,-60
2022-08-25T20:47:57.599Z,-60
2022-08-25T20:50:24.733Z,-60
2022-08-25T20:52:54.409Z,-61
2022-08-25T20:55:21.723Z,-61
2022-08-25T20:57:48.964Z,-60
2022-08-25T21:00:16.504Z,-60
2022-08-25T21:02:46.015Z,-60
2022-08-25T21:05:12.784Z,-60
2022-08-25T21:07:39.208Z,-60
2022-08-25T21:10:14.430Z,-61
2022-08-25T21:12:41.524Z,-63
2022-08-25T21:15:10.312Z,-60
2022-08-25T21:17:36.728Z,-60
2022-08-25T21:20:06.653Z,-60
2022-08-25T21:22:35.083Z,-61
2022-08-25T21:25:01.674Z,-60
2022-08-25T21:27:29.573Z,-60
2022-08-25T21:29:56.017Z,-60
2022-08-25T21:32:23.775Z,-60
2022-08-25T21:34:53.961Z,-60
2022-08-25T21:37:20.529Z,-60
2022-08-25T21:39:46.978Z,-60
2022-08-25T21:42:13.469Z,-60
2022-08-25T21:44:40.246Z,-60
2022-08-25T21:47:06.642Z,-60
2022-08-25T21:49:37.592Z,-60
2022-08-25T21:52:04.591Z,-60
2022-08-25T21:54:31.922Z,-60
2022-08-25T21:57:07.260Z,-60
2022-08-25T21:59:37.612Z,-60
2022-08-25T22:02:07.747Z,-60
2022-08-25T22:04:36.233Z,-60
2022-08-25T22:07:02.659Z,-60
2022-08-25T22:09:29.754Z,-60
2022-08-25T22:11:57.013Z,-60
2022-08-25T22:14:26.271Z,-60
2022-08-25T22:16:53.833Z,-60
2022-08-25T22:19:21.442Z,-59
2022-08-25T22:21:49.680Z,-60
2022-08-25T22:24:17.274Z,-60
2022-08-25T22:26:43.666Z,-60
2022-08-25T22:29:14.318Z,-60
2022-08-25T22:31:53.022Z,-59
2022-08-25T22:34:30.221Z,-60
2022-08-25T22:36:59.795Z,-59
2022-08-25T22:39:26.497Z,-57
2022-08-25T22:41:52.850Z,-57
2022-08-25T22:44:19.190Z,-59
2022-08-25T22:46:45.598Z,-57
2022-08-25T22:49:12.380Z,-57
2022-08-25T22:51:38.785Z,-57
2022-08-25T22:54:05.904Z,-57
2022-08-25T22:56:37.592Z,-57
2022-08-25T22:59:11.390Z,-58
2022-08-25T23:01:37.956Z,-58
2022-08-25T23:04:06.681Z,-58
2022-08-25T23:06:34.422Z,-57
2022-08-25T23:09:02.137Z,-57
2022-08-25T23:11:29.009Z,-57
2022-08-25T23:13:57.150Z,-57
2022-08-25T23:16:23.897Z,-58
2022-08-25T23:18:50.847Z,-57
2022-08-25T23:21:38.151Z,-57
2022-08-25T23:24:08.727Z,-57
2022-08-25T23:26:37.106Z,-58
2022-08-25T23:29:18.048Z,-58
2022-08-25T23:31:46.734Z,-57
2022-08-25T23:34:14.877Z,-58
2022-08-25T23:36:41.307Z,-57
2022-08-25T23:39:09.109Z,-57
2022-08-25T23:41:36.996Z,-57
2022-08-25T23:44:05.282Z,-57
2022-08-25T23:46:34.838Z,-57
2022-08-25T23:49:02.752Z,-57
2022-08-25T23:51:33.448Z,-58
2022-08-25T23:54:05.807Z,-58
2022-08-25T23:56:34.289Z,-57
2022-08-25T23:59:02.458Z,-57
